createdAt,value
2023-03-07T00:01:09.280Z,7.15
2023-03-07T00:03:36.948Z,7.13
2023-03-07T00:06:08.427Z,7.12
2023-03-07T00:08:36.267Z,7.19
2023-03-07T00:11:08.691Z,7.21
2023-03-07T00:13:37.576Z,7.19
2023-03-07T00:16:13.707Z,7.20
2023-03-07T00:18:41.412Z,7.17
2023-03-07T00:21:14.972Z,7.13
2023-03-07T00:23:44.399Z,7.10
2023-03-07T00:26:20.787Z,7.11
2023-03-07T00:28:50.651Z,7.13
2023-03-07T00:31:18.713Z,7.10
2023-03-07T00:33:45.654Z,7.06
2023-03-07T00:36:16.757Z,7.06
2023-03-07T00:38:44.647Z,7.02
2023-03-07T00:41:33.010Z,7.00
2023-03-07T00:43:59.833Z,6.99
2023-03-07T00:46:27.345Z,7.00
2023-03-07T00:48:54.471Z,6.94
2023-03-07T00:51:23.620Z,6.90
2023-03-07T00:53:51.293Z,6.85
2023-03-07T00:56:24.296Z,6.85
2023-03-07T00:58:51.833Z,6.83
2023-03-07T01:01:23.363Z,6.83
2023-03-07T01:03:53.560Z,6.88
2023-03-07T01:06:27.444Z,6.88
2023-03-07T01:08:57.676Z,6.92
2023-03-07T01:11:25.707Z,6.89
2023-03-07T01:13:56.729Z,6.83
2023-03-07T01:16:27.879Z,6.81
2023-03-07T01:18:58.450Z,6.82
2023-03-07T01:21:38.168Z,6.80
2023-03-07T01:24:12.437Z,6.80
2023-03-07T01:26:39.332Z,6.78
2023-03-07T01:29:07.758Z,6.76
2023-03-07T01:31:34.988Z,6.76
2023-03-07T01:34:02.617Z,6.80
2023-03-07T01:36:33.240Z,6.82
2023-03-07T01:39:06.600Z,6.84
2023-03-07T01:41:39.894Z,6.83
2023-03-07T01:44:25.618Z,6.89
2023-03-07T01:46:57.440Z,6.91
2023-03-07T01:49:30.287Z,6.90
2023-03-07T01:52:05.615Z,6.94
2023-03-07T01:54:34.457Z,6.94
2023-03-07T01:57:03.290Z,6.90
2023-03-07T01:59:37.027Z,6.93
2023-03-07T02:02:11.869Z,6.93
2023-03-07T02:04:58.876Z,6.81
2023-03-07T02:07:30.708Z,6.64
2023-03-07T02:09:58.979Z,6.71
2023-03-07T02:12:25.914Z,6.59
2023-03-07T02:14:52.839Z,6.62
2023-03-07T02:17:19.980Z,6.61
2023-03-07T02:20:23.016Z,6.72
2023-03-07T02:22:50.294Z,6.74
2023-03-07T02:25:25.798Z,6.77
2023-03-07T02:27:55.603Z,6.81
2023-03-07T02:30:22.847Z,6.77
2023-03-07T02:32:49.738Z,6.80
2023-03-07T02:35:23.965Z,6.76
2023-03-07T02:37:55.867Z,6.77
2023-03-07T02:40:25.799Z,6.82
2023-03-07T02:42:55.811Z,6.88
2023-03-07T02:45:22.672Z,6.91
2023-03-07T02:47:49.529Z,6.87
2023-03-07T02:50:17.797Z,6.87
2023-03-07T02:52:44.805Z,6.84
2023-03-07T02:55:12.698Z,6.86
2023-03-07T02:57:39.463Z,6.77
2023-03-07T03:00:08.184Z,6.75
2023-03-07T03:02:35.371Z,6.90
2023-03-07T03:05:02.293Z,6.82
2023-03-07T03:07:29.181Z,7.08
2023-03-07T03:09:56.066Z,7.15
2023-03-07T03:12:22.909Z,7.04
2023-03-07T03:14:49.872Z,7.06
2023-03-07T03:17:17.261Z,7.20
2023-03-07T03:19:44.093Z,7.18
2023-03-07T03:22:11.125Z,7.12
2023-03-07T03:24:42.427Z,6.95
2023-03-07T03:27:09.754Z,7.24
2023-03-07T03:29:36.608Z,7.35
2023-03-07T03:32:03.691Z,7.35
2023-03-07T03:34:30.632Z,7.24
2023-03-07T03:36:57.655Z,7.37
2023-03-07T03:39:24.502Z,7.41
2023-03-07T03:41:51.452Z,7.39
2023-03-07T03:44:18.222Z,7.20
2023-03-07T03:46:45.074Z,7.25
2023-03-07T03:49:13.712Z,7.31
2023-03-07T03:51:40.611Z,7.38
2023-03-07T03:54:07.479Z,7.04
2023-03-07T03:56:34.270Z,7.22
2023-03-07T03:59:01.089Z,7.03
2023-03-07T04:01:29.725Z,7.18
2023-03-07T04:03:57.792Z,6.95
2023-03-07T04:06:28.536Z,6.52
2023-03-07T04:08:55.874Z,6.84
2023-03-07T04:11:24.413Z,6.87
2023-03-07T04:13:51.598Z,6.77
2023-03-07T04:16:19.663Z,6.70
2023-03-07T04:18:46.572Z,6.67
2023-03-07T04:21:13.412Z,6.52
2023-03-07T04:23:40.337Z,6.57
2023-03-07T04:26:09.861Z,6.46
2023-03-07T04:28:43.642Z,6.66
2023-03-07T04:31:19.566Z,6.65
2023-03-07T04:33:47.595Z,6.65
2023-03-07T04:36:18.774Z,6.63
2023-03-07T04:38:47.177Z,6.58
2023-03-07T04:41:25.558Z,6.53
2023-03-07T04:43:52.629Z,6.39
2023-03-07T04:46:20.570Z,6.39
2023-03-07T04:48:47.857Z,6.26
2023-03-07T04:51:14.906Z,6.33
2023-03-07T04:53:41.827Z,6.33
2023-03-07T04:56:09.987Z,6.29
2023-03-07T04:58:37.390Z,6.25
2023-03-07T05:01:05.726Z,6.15
2023-03-07T05:03:33.676Z,6.22
2023-03-07T05:06:10.483Z,6.01
2023-03-07T05:08:37.431Z,6.16
2023-03-07T05:11:04.504Z,6.16
2023-03-07T05:13:31.917Z,5.92
2023-03-07T05:15:59.757Z,6.15
2023-03-07T05:18:27.489Z,5.97
2023-03-07T05:20:54.393Z,6.21
2023-03-07T05:23:21.884Z,6.19
2023-03-07T05:25:48.801Z,6.22
2023-03-07T05:28:16.990Z,6.14
2023-03-07T05:30:45.553Z,6.18
2023-03-07T05:33:12.873Z,6.34
2023-03-07T05:35:39.965Z,6.29
2023-03-07T05:38:07.290Z,6.34
2023-03-07T05:40:34.906Z,6.41
2023-03-07T05:43:02.072Z,6.58
2023-03-07T05:45:28.990Z,6.21
2023-03-07T05:47:55.835Z,6.52
2023-03-07T05:50:22.737Z,6.62
2023-03-07T05:52:49.853Z,6.72
2023-03-07T05:55:16.771Z,6.60
2023-03-07T05:57:43.575Z,6.65
2023-03-07T06:00:11.446Z,6.74
2023-03-07T06:02:38.352Z,6.79
2023-03-07T06:05:05.741Z,6.61
2023-03-07T06:07:32.560Z,6.81
2023-03-07T06:09:59.419Z,6.80
2023-03-07T06:12:26.357Z,6.85
2023-03-07T06:14:53.237Z,6.87
2023-03-07T06:17:20.065Z,7.04
2023-03-07T06:19:46.914Z,7.12
2023-03-07T06:22:13.803Z,6.81
2023-03-07T06:24:40.635Z,6.91
2023-03-07T06:27:07.425Z,7.13
2023-03-07T06:29:34.428Z,7.25
2023-03-07T06:32:01.307Z,7.29
2023-03-07T06:34:28.183Z,6.89
2023-03-07T06:36:55.173Z,7.29
2023-03-07T06:39:22.064Z,7.31
2023-03-07T06:41:50.033Z,7.28
2023-03-07T06:46:45.939Z,7.56
2023-03-07T06:49:13.316Z,7.33
2023-03-07T06:51:40.323Z,7.74
2023-03-07T06:54:07.464Z,8.10
2023-03-07T06:56:35.246Z,8.25
2023-03-07T06:59:02.957Z,8.19
2023-03-07T07:01:29.931Z,7.67
2023-03-07T07:03:57.082Z,7.85
2023-03-07T07:06:24.081Z,8.07
2023-03-07T07:08:55.445Z,7.94
2023-03-07T07:11:23.665Z,8.29
2023-03-07T07:13:50.894Z,8.33
2023-03-07T07:16:18.982Z,8.76
2023-03-07T07:18:46.042Z,8.35
2023-03-07T07:21:12.949Z,8.10
2023-03-07T07:23:40.076Z,8.71
2023-03-07T07:26:06.944Z,8.34
2023-03-07T07:28:33.806Z,8.94
2023-03-07T07:31:07.641Z,8.98
2023-03-07T07:33:35.853Z,8.39
2023-03-07T07:36:02.686Z,8.16
2023-03-07T07:38:29.497Z,8.24
2023-03-07T07:40:56.498Z,8.50
2023-03-07T07:43:23.357Z,7.89
2023-03-07T07:45:50.268Z,8.15
2023-03-07T07:48:17.394Z,7.75
2023-03-07T07:50:44.265Z,8.97
2023-03-07T07:53:11.163Z,9.00
2023-03-07T07:55:38.112Z,9.11
2023-03-07T07:58:05.175Z,8.39
2023-03-07T08:00:32.492Z,9.60
2023-03-07T08:03:00.227Z,8.95
2023-03-07T08:05:27.140Z,8.68
2023-03-07T08:07:54.073Z,9.38
2023-03-07T08:10:21.739Z,9.89
2023-03-07T08:12:52.794Z,10.18
2023-03-07T08:15:23.719Z,10.03
2023-03-07T08:17:51.340Z,9.54
2023-03-07T08:20:22.155Z,9.61
2023-03-07T08:22:50.487Z,10.06
2023-03-07T08:25:21.783Z,9.95
2023-03-07T08:27:53.033Z,10.89
2023-03-07T08:30:20.093Z,11.12
2023-03-07T08:32:50.804Z,11.69
2023-03-07T08:35:18.881Z,11.63
2023-03-07T08:37:46.802Z,11.64
2023-03-07T08:40:14.452Z,10.47
2023-03-07T08:42:41.362Z,11.28
2023-03-07T08:45:09.316Z,11.43
2023-03-07T08:47:36.176Z,12.25
2023-03-07T08:50:05.249Z,11.99
2023-03-07T08:52:32.205Z,12.56
2023-03-07T08:54:59.135Z,12.61
2023-03-07T08:57:25.986Z,11.34
2023-03-07T08:59:52.844Z,12.92
2023-03-07T09:02:19.641Z,12.74
2023-03-07T09:04:46.693Z,12.82
2023-03-07T09:07:13.523Z,11.46
2023-03-07T09:09:40.426Z,12.39
2023-03-07T09:12:07.506Z,12.79
2023-03-07T09:14:34.378Z,13.33
2023-03-07T09:17:01.191Z,13.20
2023-03-07T09:19:28.067Z,13.08
2023-03-07T09:21:55.327Z,12.73
2023-03-07T09:24:22.228Z,12.57
2023-03-07T09:26:49.071Z,12.93
2023-03-07T09:29:16.780Z,13.20
2023-03-07T09:31:44.188Z,13.24
2023-03-07T09:34:11.420Z,14.28
2023-03-07T09:36:38.426Z,13.84
2023-03-07T09:39:06.101Z,14.49
2023-03-07T09:41:56.865Z,14.11
2023-03-07T09:44:46.735Z,13.27
2023-03-07T09:47:42.008Z,13.58
2023-03-07T09:50:23.422Z,14.32
2023-03-07T09:52:53.781Z,12.80
2023-03-07T09:55:22.065Z,12.65
2023-03-07T09:57:58.770Z,13.73
2023-03-07T10:00:38.038Z,14.37
2023-03-07T10:03:36.209Z,14.29
2023-03-07T10:06:16.400Z,12.35
2023-03-07T10:08:43.266Z,13.50
2023-03-07T10:11:41.906Z,12.99
2023-03-07T10:14:51.098Z,12.16
2023-03-07T10:17:35.627Z,13.56
2023-03-07T10:20:46.990Z,13.08
2023-03-07T10:23:54.277Z,12.31
2023-03-07T10:26:30.504Z,12.69
2023-03-07T10:29:00.314Z,12.59
2023-03-07T10:31:39.306Z,13.25
2023-03-07T10:34:29.199Z,13.29
2023-03-07T10:37:08.916Z,13.30
2023-03-07T10:39:52.357Z,12.44
2023-03-07T10:42:25.341Z,12.79
2023-03-07T10:44:52.538Z,13.75
2023-03-07T10:47:23.212Z,13.45
2023-03-07T10:49:55.158Z,14.24
2023-03-07T10:52:40.076Z,14.46
2023-03-07T10:55:39.807Z,14.60
2023-03-07T10:58:24.341Z,14.54
2023-03-07T11:01:16.463Z,15.36
2023-03-07T11:03:56.873Z,16.11
2023-03-07T11:06:36.954Z,15.00
2023-03-07T11:09:31.833Z,15.93
2023-03-07T11:12:13.989Z,16.19
2023-03-07T11:14:54.877Z,16.38
2023-03-07T11:17:24.193Z,16.20
2023-03-07T11:19:57.986Z,16.24
2023-03-07T11:22:36.559Z,16.57
2023-03-07T11:25:25.844Z,15.96
2023-03-07T11:27:56.286Z,15.25
2023-03-07T11:30:41.077Z,15.56
2023-03-07T11:33:40.562Z,16.72
2023-03-07T11:36:16.988Z,17.39
2023-03-07T11:38:56.577Z,16.51
2023-03-07T11:41:40.548Z,15.41
2023-03-07T11:44:35.183Z,16.11
2023-03-07T11:47:50.820Z,16.12
2023-03-07T11:50:27.724Z,16.17
2023-03-07T11:53:28.493Z,16.44
2023-03-07T11:56:29.224Z,16.88
2023-03-07T11:59:37.516Z,17.84
2023-03-07T12:02:29.716Z,16.63
2023-03-07T12:05:27.343Z,17.13
2023-03-07T12:08:20.763Z,16.52
2023-03-07T12:11:23.594Z,15.68
2023-03-07T12:14:27.167Z,15.49
2023-03-07T12:17:20.639Z,16.55
2023-03-07T12:20:20.568Z,17.01
2023-03-07T12:22:59.985Z,17.54
2023-03-07T12:25:40.294Z,18.09
2023-03-07T12:28:11.537Z,18.06
2023-03-07T12:30:59.551Z,17.93
2023-03-07T12:34:00.298Z,17.95
2023-03-07T12:36:46.821Z,17.83
2023-03-07T12:39:55.358Z,18.62
2023-03-07T12:43:00.414Z,18.70
2023-03-07T12:45:40.876Z,19.51
2023-03-07T12:48:43.208Z,18.89
2023-03-07T12:51:33.534Z,18.83
2023-03-07T12:54:17.487Z,17.49
2023-03-07T12:56:55.948Z,17.09
2023-03-07T12:59:23.077Z,19.36
2023-03-07T13:02:02.224Z,19.96
2023-03-07T13:04:37.023Z,20.51
2023-03-07T13:07:15.628Z,22.52
2023-03-07T13:09:49.165Z,23.51
2023-03-07T13:12:16.343Z,23.06
2023-03-07T13:15:31.014Z,23.86
2023-03-07T13:18:00.596Z,22.39
2023-03-07T13:20:40.658Z,22.76
2023-03-07T13:23:33.592Z,22.43
2023-03-07T13:26:04.334Z,23.02
2023-03-07T13:28:42.442Z,23.79
2023-03-07T13:31:15.404Z,23.83
2023-03-07T13:33:42.835Z,22.65
2023-03-07T13:36:38.649Z,22.30
2023-03-07T13:39:38.146Z,22.16
2023-03-07T13:42:05.173Z,22.35
2023-03-07T13:44:42.099Z,22.36
2023-03-07T13:47:44.645Z,21.72
2023-03-07T13:50:35.431Z,21.68
2023-03-07T13:53:16.682Z,21.73
2023-03-07T13:55:47.729Z,20.50
2023-03-07T13:58:34.240Z,21.47
2023-03-07T14:01:13.467Z,21.75
2023-03-07T14:03:53.049Z,22.28
2023-03-07T14:06:36.525Z,21.58
2023-03-07T14:09:07.042Z,20.98
2023-03-07T14:11:51.321Z,22.15
2023-03-07T14:14:45.611Z,23.19
2023-03-07T14:17:15.077Z,21.80
2023-03-07T14:20:01.578Z,21.91
2023-03-07T14:23:18.443Z,20.82
2023-03-07T14:25:54.504Z,20.48
2023-03-07T14:28:27.472Z,20.36
2023-03-07T14:31:05.515Z,19.96
2023-03-07T14:33:35.891Z,19.31
2023-03-07T14:36:25.517Z,19.26
2023-03-07T14:38:58.111Z,19.48
2023-03-07T14:42:00.797Z,19.42
2023-03-07T14:45:14.949Z,19.36
2023-03-07T14:48:02.632Z,18.41
2023-03-07T14:50:31.709Z,18.06
2023-03-07T14:53:05.397Z,18.32
2023-03-07T14:55:39.184Z,19.78
2023-03-07T14:58:06.783Z,19.95
2023-03-07T15:00:35.704Z,19.16
2023-03-07T15:03:10.690Z,18.28
2023-03-07T15:05:46.419Z,17.21
2023-03-07T15:08:24.344Z,15.62
2023-03-07T15:11:11.218Z,15.45
2023-03-07T15:13:56.917Z,15.87
2023-03-07T15:16:41.466Z,16.28
2023-03-07T15:19:22.521Z,17.54
2023-03-07T15:22:01.442Z,18.10
2023-03-07T15:24:35.068Z,18.61
2023-03-07T15:27:02.424Z,18.02
2023-03-07T15:29:31.226Z,18.43
2023-03-07T15:32:02.606Z,18.58
2023-03-07T15:34:39.027Z,18.23
2023-03-07T15:37:22.487Z,17.21
2023-03-07T15:40:30.742Z,16.86
2023-03-07T15:43:04.767Z,16.25
2023-03-07T15:45:38.462Z,15.85
2023-03-07T15:48:43.416Z,15.52
2023-03-07T15:51:19.238Z,15.06
2023-03-07T15:53:59.412Z,14.92
2023-03-07T15:56:35.140Z,14.82
2023-03-07T15:59:07.273Z,14.30
2023-03-07T16:01:34.122Z,13.84
2023-03-07T16:04:04.053Z,13.05
2023-03-07T16:06:44.614Z,13.19
2023-03-07T16:09:18.755Z,13.17
2023-03-07T16:11:47.014Z,13.12
2023-03-07T16:14:32.678Z,12.85
2023-03-07T16:17:03.433Z,12.95
2023-03-07T16:19:30.643Z,12.76
2023-03-07T16:21:57.544Z,12.69
2023-03-07T16:24:24.384Z,12.60
2023-03-07T16:26:51.371Z,12.28
2023-03-07T16:29:22.714Z,12.04
2023-03-07T16:31:49.655Z,12.07
2023-03-07T16:34:20.708Z,12.07
2023-03-07T16:36:48.145Z,11.87
2023-03-07T16:39:15.859Z,11.94
2023-03-07T16:41:48.746Z,11.92
2023-03-07T16:44:22.073Z,11.71
2023-03-07T16:47:01.636Z,11.57
2023-03-07T16:49:28.429Z,11.36
2023-03-07T16:52:05.041Z,11.07
2023-03-07T16:54:32.861Z,10.98
2023-03-07T16:57:01.471Z,11.13
2023-03-07T16:59:34.705Z,11.12
2023-03-07T17:02:03.292Z,11.00
2023-03-07T17:04:30.111Z,10.28
2023-03-07T17:07:04.462Z,10.66
2023-03-07T17:09:31.773Z,10.48
2023-03-07T17:11:59.298Z,10.24
2023-03-07T17:14:26.117Z,10.33
2023-03-07T17:16:52.972Z,10.20
2023-03-07T17:19:28.212Z,10.06
2023-03-07T17:21:57.500Z,9.99
2023-03-07T17:24:25.380Z,9.66
2023-03-07T17:26:53.679Z,9.61
2023-03-07T17:29:37.526Z,9.36
2023-03-07T17:32:04.929Z,9.37
2023-03-07T17:34:34.321Z,9.22
2023-03-07T17:37:01.575Z,9.11
2023-03-07T17:39:34.198Z,9.10
2023-03-07T17:42:02.043Z,9.02
2023-03-07T17:44:29.691Z,8.91
2023-03-07T17:46:58.420Z,8.91
2023-03-07T17:49:28.449Z,8.85
2023-03-07T17:51:55.267Z,8.91
2023-03-07T17:54:22.138Z,8.79
2023-03-07T17:56:48.974Z,8.73
2023-03-07T17:59:15.853Z,8.62
2023-03-07T18:01:42.939Z,8.61
2023-03-07T18:04:10.228Z,8.54
2023-03-07T18:06:39.904Z,8.46
2023-03-07T18:09:08.068Z,8.43
2023-03-07T18:11:35.375Z,8.36
2023-03-07T18:14:03.522Z,8.20
2023-03-07T18:16:30.812Z,8.11
2023-03-07T18:19:00.759Z,7.94
2023-03-07T18:21:29.772Z,7.87
2023-03-07T18:23:57.651Z,7.71
2023-03-07T18:26:24.794Z,7.62
2023-03-07T18:28:53.580Z,7.49
2023-03-07T18:31:30.346Z,7.57
2023-03-07T18:33:57.165Z,7.56
2023-03-07T18:36:25.368Z,7.67
2023-03-07T18:38:52.691Z,7.74
2023-03-07T18:41:25.954Z,7.78
2023-03-07T18:43:54.740Z,7.78
2023-03-07T18:46:24.202Z,7.87
2023-03-07T18:48:51.544Z,7.77
2023-03-07T18:51:26.617Z,7.93
2023-03-07T18:54:00.335Z,7.85
2023-03-07T18:56:28.537Z,7.87
2023-03-07T18:58:58.902Z,7.81
2023-03-07T19:01:36.653Z,7.76
2023-03-07T19:04:05.274Z,7.67
2023-03-07T19:06:41.381Z,7.66
2023-03-07T19:09:14.283Z,7.58
2023-03-07T19:11:41.082Z,7.57
2023-03-07T19:14:07.997Z,7.52
2023-03-07T19:16:34.866Z,7.45
2023-03-07T19:19:02.821Z,7.41
2023-03-07T19:21:30.582Z,7.31
2023-03-07T19:24:02.685Z,7.24
2023-03-07T19:26:29.837Z,7.18
2023-03-07T19:28:57.867Z,7.07
2023-03-07T19:31:31.179Z,7.00
2023-03-07T19:33:58.596Z,6.90
2023-03-07T19:36:28.640Z,6.82
2023-03-07T19:38:58.902Z,6.77
2023-03-07T19:41:28.917Z,6.77
2023-03-07T19:43:57.707Z,6.71
2023-03-07T19:46:25.631Z,6.76
2023-03-07T19:48:52.471Z,6.83
2023-03-07T19:51:23.530Z,6.82
2023-03-07T19:53:50.774Z,6.86
2023-03-07T19:56:20.060Z,6.92
2023-03-07T19:58:47.002Z,7.01
2023-03-07T20:01:17.214Z,7.10
2023-03-07T20:03:44.890Z,7.17
2023-03-07T20:06:18.710Z,7.11
2023-03-07T20:08:54.732Z,7.16
2023-03-07T20:11:28.066Z,7.14
2023-03-07T20:13:58.326Z,7.19
2023-03-07T20:16:28.961Z,7.13
2023-03-07T20:19:02.145Z,7.13
2023-03-07T20:21:29.981Z,7.04
2023-03-07T20:24:00.535Z,7.00
2023-03-07T20:26:31.626Z,7.08
2023-03-07T20:28:59.668Z,7.09
2023-03-07T20:31:27.492Z,7.18
2023-03-07T20:33:54.445Z,7.15
2023-03-07T20:36:24.979Z,7.13
2023-03-07T20:38:58.168Z,7.25
2023-03-07T20:41:31.690Z,7.15
2023-03-07T20:44:04.641Z,7.20
2023-03-07T20:46:32.585Z,7.16
2023-03-07T20:49:01.136Z,7.24
2023-03-07T20:51:31.661Z,7.38
2023-03-07T20:54:05.522Z,7.46
2023-03-07T20:56:35.253Z,7.56
2023-03-07T20:59:02.664Z,7.68
2023-03-07T21:01:32.326Z,7.68
2023-03-07T21:04:12.222Z,7.77
2023-03-07T21:06:43.016Z,7.85
2023-03-07T21:09:11.885Z,7.95
2023-03-07T21:11:44.845Z,7.93
2023-03-07T21:14:13.114Z,7.90
2023-03-07T21:16:40.262Z,7.84
2023-03-07T21:19:07.918Z,7.86
2023-03-07T21:21:35.860Z,7.84
2023-03-07T21:24:03.812Z,7.88
2023-03-07T21:26:34.497Z,7.99
2023-03-07T21:29:03.712Z,8.06
2023-03-07T21:31:33.497Z,8.07
2023-03-07T21:34:07.257Z,8.06
2023-03-07T21:36:34.573Z,8.12
2023-03-07T21:39:04.139Z,8.24
2023-03-07T21:41:31.314Z,8.24
2023-03-07T21:43:58.458Z,8.19
2023-03-07T21:46:25.935Z,8.22
2023-03-07T21:48:53.418Z,8.41
2023-03-07T21:51:20.809Z,8.40
2023-03-07T21:53:47.702Z,8.13
2023-03-07T21:56:17.176Z,8.23
2023-03-07T21:58:48.919Z,8.30
2023-03-07T22:01:21.682Z,8.16
2023-03-07T22:03:52.540Z,8.20
2023-03-07T22:06:19.603Z,8.30
2023-03-07T22:08:46.437Z,8.05
2023-03-07T22:11:14.049Z,8.50
2023-03-07T22:13:41.980Z,8.45
2023-03-07T22:16:13.055Z,8.61
2023-03-07T22:18:40.490Z,8.22
2023-03-07T22:21:17.285Z,8.47
2023-03-07T22:23:44.458Z,8.42
2023-03-07T22:26:12.718Z,8.45
2023-03-07T22:28:43.215Z,8.39
2023-03-07T22:31:12.698Z,8.42
2023-03-07T22:33:41.014Z,8.60
2023-03-07T22:36:11.895Z,8.64
2023-03-07T22:38:39.093Z,8.53
2023-03-07T22:41:12.212Z,8.25
2023-03-07T22:43:39.585Z,8.33
2023-03-07T22:46:07.248Z,8.68
2023-03-07T22:48:34.741Z,8.42
2023-03-07T22:51:01.798Z,8.42
2023-03-07T22:53:33.437Z,8.50
2023-03-07T22:56:00.667Z,8.51
2023-03-07T22:58:29.306Z,8.43
2023-03-07T23:00:56.671Z,8.75
2023-03-07T23:03:23.753Z,8.63
2023-03-07T23:05:50.927Z,8.34
2023-03-07T23:08:17.864Z,8.21
2023-03-07T23:10:44.830Z,8.51
2023-03-07T23:13:11.626Z,8.32
2023-03-07T23:15:41.576Z,8.38
2023-03-07T23:18:09.176Z,8.37
2023-03-07T23:20:39.129Z,8.35
2023-03-07T23:23:06.702Z,8.04
2023-03-07T23:25:33.993Z,8.50
2023-03-07T23:28:01.177Z,8.25
2023-03-07T23:30:28.091Z,8.17
2023-03-07T23:32:55.152Z,7.78
2023-03-07T23:35:22.080Z,8.11
2023-03-07T23:37:48.906Z,8.27
2023-03-07T23:40:15.847Z,8.35
2023-03-07T23:42:42.650Z,8.24
2023-03-07T23:45:09.943Z,8.15
2023-03-07T23:47:36.852Z,8.11
2023-03-07T23:50:04.147Z,8.12
2023-03-07T23:52:31.009Z,7.95
2023-03-07T23:54:57.921Z,8.10
2023-03-07T23:57:24.776Z,8.14
2023-03-07T23:59:52.131Z,8.11
